Meteo Giornale » Osservazioni meteo Svizzera » Saint Gallen-Altenrhein

ore: 17:50 - Osservazioni Meteo Saint Gallen-Altenrhein
Lat. 47° 29' N Lon. 9° 33' E Alt. 398 metri s.l.m.

poco_nuvoloso Europe/Zurich

22 °C

Poco Nuvoloso

Temp. 24 Ore

12 °C

23 °C

Est

7.4 Km/h

Dew point 13 °C

Umidità 56 %

Visibilità  10 Km

Il sole sorge alle ore 05:29

Il sole tramonta alle ore 21:23

Data e Ora Cielo e Fenomeni T °C DP °C Um. % Pres. hPa Vis. km Vento km/h
Oggi h: 17:50 poco_nuvoloso Poco Nuvoloso 22 13 56 1020 10 E 7.4
Oggi h: 17:20 poco_nuvoloso Poco Nuvoloso 22 13 56 1020 10 E 7.4
Oggi h: 16:50 poco_nuvoloso Poco Nuvoloso 23 14 56 1020 10 N 7.4
Oggi h: 16:20 poco_nuvoloso Poco Nuvoloso 23 14 56 1020 10 N 7.4
Oggi h: 15:50 nuvoloso Nuvoloso 23 15 60 1020 10 NE 9.3
Oggi h: 15:20 nuvoloso Nuvoloso 23 15 60 1020 10 NE 9.3
Oggi h: 14:50 sereno Sereno 22 12 53 1021 10 NE 9.3
Oggi h: 14:20 nuvoloso Nuvoloso 22 13 56 1021 10 N/NO 7.4
Oggi h: 13:50 nuvoloso Nuvoloso 21 13 60 1021 10 N 5.5
Oggi h: 13:20 nuvoloso Nuvoloso 21 13 60 1021 10 N 5.5
Oggi h: 12:50 sereno Sereno 21 15 68 1022 10 N 5.5
Oggi h: 12:20 poco_nuvoloso Poco Nuvoloso 19 13 68 1022 10 N 7.4
Oggi h: 11:50 poco_nuvoloso Poco Nuvoloso 19 13 68 1022 10 N 7.4
Oggi h: 11:20 nuvoloso Nuvoloso 19 14 72 1022 10 N 3.7
Oggi h: 10:50 nuvoloso Nuvoloso 19 14 72 1022 10 N 3.7
Oggi h: 10:20 molto_nuvoloso Molto Nuvoloso 17 13 77 1022 10 O/NO 9.3
Oggi h: 09:50 molto_nuvoloso Molto Nuvoloso 17 13 77 1022 10 O/NO 9.3
Oggi h: 09:20 molto_nuvoloso Molto Nuvoloso 17 14 82 1022 10 N 5.5
Oggi h: 08:50 molto_nuvoloso Molto Nuvoloso 17 14 82 1022 10 N 5.5
Oggi h: 08:20 molto_nuvoloso Molto Nuvoloso 17 14 82 1022 10 N 1.8
Oggi h: 07:50 molto_nuvoloso Molto Nuvoloso 17 14 82 1022 10 N 1.8
Oggi h: 07:20 sereno Sereno 15 13 87 1022 10 N 3.7
Oggi h: 06:50 sereno Sereno 14 13 93 1022 10 N 3.7
Oggi h: 06:20 sereno Sereno 12 12 100 1021 10 N 3.7
Oggi h: 05:50 sereno Sereno 12 12 100 1021 10 N 3.7
Oggi h: 05:20 sereno Sereno 12 12 100 1021 10 N 1.8
Oggi h: 04:50 sereno Sereno 13 12 93 1021 10 N 1.8
Oggi h: 04:20 sereno Sereno 13 12 93 1021 10 N 5.5
Oggi h: 03:50 sereno Sereno 13 12 93 1021 10 E 7.4
Oggi h: 03:20 sereno Sereno 13 12 93 1021 10 N 3.7
Oggi h: 02:20 sereno Sereno 13 12 93 1021 10 N 3.7
Oggi h: 01:50 sereno Sereno 13 12 93 1021 10 N 1.8
Oggi h: 01:20 sereno Sereno 13 12 93 1021 10 N 3.7
Oggi h: 00:50 sereno Sereno 14 13 93 1021 10 N 3.7
Oggi h: 00:20 sereno Sereno 14 12 87 1021 10 N 5.5
Ieri h: 23:50 molto_nuvoloso Molto Nuvoloso 15 13 87 1021 10 N 3.7
Ieri h: 23:20 sereno Sereno 15 13 87 1021 10 N 3.7
Ieri h: 22:50 nuvoloso Nuvoloso 16 12 77 1021 10 N 5.5
Ieri h: 22:20 nuvoloso Nuvoloso 17 12 72 1021 10 N 5.5
Ieri h: 21:50 coperto_pioggia Pioggia Debole 16 14 87 1020 10 N 1.8
Ieri h: 21:20 molto_nuvoloso Molto Nuvoloso 18 15 82 1020 10 N 3.7
Ieri h: 20:50 coperto Coperto 19 16 82 1020 10 N 1.8
Ieri h: 20:20 coperto Coperto 19 14 72 1020 10 N 1.8
Ieri h: 19:50 molto_nuvoloso Molto Nuvoloso 20 12 59 1020 10 N 5.5
Ieri h: 19:20 molto_nuvoloso Molto Nuvoloso 20 12 59 1020 10 N 5.5
Ieri h: 18:50 molto_nuvoloso Molto Nuvoloso 20 12 59 1020 10 N 5.5